createdAt,value
2017-09-15T00:00:48.766Z,12.96
2017-09-15T00:03:16.163Z,12.98
2017-09-15T00:05:43.556Z,13.00
2017-09-15T00:08:10.954Z,13.03
2017-09-15T00:10:38.350Z,13.01
2017-09-15T00:13:05.779Z,13.03
2017-09-15T00:15:33.176Z,13.00
2017-09-15T00:18:00.574Z,12.91
2017-09-15T00:20:27.974Z,12.95
2017-09-15T00:22:55.378Z,12.92
2017-09-15T00:25:22.778Z,12.89
2017-09-15T00:27:50.170Z,12.93
2017-09-15T00:30:17.579Z,12.95
2017-09-15T00:32:44.991Z,12.92
2017-09-15T00:35:12.438Z,12.92
2017-09-15T00:37:39.838Z,12.91
2017-09-15T00:40:07.231Z,12.86
2017-09-15T00:42:34.639Z,12.85
2017-09-15T00:45:02.035Z,12.76
2017-09-15T00:47:29.431Z,12.70
2017-09-15T00:49:56.835Z,12.56
2017-09-15T00:52:24.231Z,12.51
2017-09-15T00:54:51.630Z,12.41
2017-09-15T00:57:19.026Z,12.40
2017-09-15T01:02:37.275Z,12.46
2017-09-15T01:05:04.671Z,12.48
2017-09-15T01:07:32.073Z,12.44
2017-09-15T01:09:59.471Z,12.40
2017-09-15T01:12:26.886Z,12.33
2017-09-15T01:14:54.283Z,12.33
2017-09-15T01:17:21.682Z,12.29
2017-09-15T01:19:49.091Z,12.25
2017-09-15T01:22:16.494Z,12.24
2017-09-15T01:24:43.899Z,12.22
2017-09-15T01:27:11.290Z,12.22
2017-09-15T01:29:38.695Z,12.23
2017-09-15T01:32:06.091Z,12.23
2017-09-15T01:34:33.594Z,12.21
2017-09-15T01:37:00.995Z,12.12
2017-09-15T01:39:28.400Z,12.08
2017-09-15T01:41:55.807Z,12.08
2017-09-15T01:44:23.207Z,12.05
2017-09-15T01:46:50.606Z,12.02
2017-09-15T01:49:18.014Z,12.06
2017-09-15T01:51:45.714Z,12.03
2017-09-15T01:54:13.135Z,12.00
2017-09-15T01:56:40.515Z,12.00
2017-09-15T01:59:07.915Z,12.04
2017-09-15T02:01:35.311Z,12.06
2017-09-15T02:04:02.734Z,12.07
2017-09-15T02:06:30.123Z,12.11
2017-09-15T02:08:57.666Z,12.08
2017-09-15T02:11:25.077Z,12.05
2017-09-15T02:13:52.466Z,11.93
2017-09-15T02:16:19.871Z,11.88
2017-09-15T02:18:47.286Z,11.79
2017-09-15T02:21:14.688Z,11.77
2017-09-15T02:23:42.082Z,11.71
2017-09-15T02:26:09.536Z,11.73
2017-09-15T02:28:36.946Z,11.70
2017-09-15T02:31:04.351Z,11.63
2017-09-15T02:33:31.759Z,11.56
2017-09-15T02:35:59.151Z,11.56
2017-09-15T02:38:26.565Z,11.52
2017-09-15T02:40:53.964Z,11.50
2017-09-15T02:43:21.406Z,11.44
2017-09-15T02:45:48.799Z,11.41
2017-09-15T02:48:16.190Z,11.41
2017-09-15T02:50:43.591Z,11.43
2017-09-15T02:53:10.992Z,11.50
2017-09-15T02:55:38.395Z,11.55
2017-09-15T02:58:05.794Z,11.63
2017-09-15T03:00:33.228Z,11.70
2017-09-15T03:03:00.627Z,11.75
2017-09-15T03:05:28.027Z,11.76
2017-09-15T03:07:55.434Z,11.75
2017-09-15T03:10:22.834Z,11.79
2017-09-15T03:12:50.259Z,11.80
2017-09-15T03:15:17.659Z,11.84
2017-09-15T03:17:45.214Z,11.89
2017-09-15T03:20:12.615Z,11.97
2017-09-15T03:22:40.016Z,11.99
2017-09-15T03:25:07.423Z,12.05
2017-09-15T03:27:34.815Z,12.05
2017-09-15T03:30:02.223Z,12.07
2017-09-15T03:32:29.619Z,12.12
2017-09-15T03:34:57.034Z,12.13
2017-09-15T03:37:24.430Z,12.09
2017-09-15T03:39:51.836Z,12.12
2017-09-15T03:42:19.235Z,12.14
2017-09-15T03:44:46.631Z,12.14
2017-09-15T03:47:14.039Z,12.11
2017-09-15T03:49:41.439Z,12.12
2017-09-15T03:52:08.992Z,12.13
2017-09-15T03:54:36.403Z,12.10
2017-09-15T03:57:03.827Z,12.14
2017-09-15T03:59:31.256Z,12.14
2017-09-15T04:01:58.661Z,12.15
2017-09-15T04:04:26.067Z,12.19
2017-09-15T04:06:53.454Z,12.19
2017-09-15T04:09:20.902Z,12.19
2017-09-15T04:11:48.316Z,12.21
2017-09-15T04:14:15.716Z,12.23
2017-09-15T04:16:43.114Z,12.20
2017-09-15T04:19:10.530Z,12.22
2017-09-15T04:21:37.930Z,12.25
2017-09-15T04:24:05.328Z,12.25
2017-09-15T04:26:32.738Z,12.25
2017-09-15T04:29:00.156Z,12.24
2017-09-15T04:31:27.559Z,12.29
2017-09-15T04:33:54.954Z,12.28
2017-09-15T04:36:22.370Z,12.33
2017-09-15T04:38:49.778Z,12.32
2017-09-15T04:41:17.179Z,12.33
2017-09-15T04:43:44.843Z,12.34
2017-09-15T04:46:12.230Z,12.33
2017-09-15T04:48:39.622Z,12.27
2017-09-15T04:51:07.187Z,12.30
2017-09-15T04:53:34.610Z,12.31
2017-09-15T04:56:02.000Z,12.28
2017-09-15T04:58:29.407Z,12.35
2017-09-15T05:01:01.673Z,12.27
2017-09-15T05:03:29.099Z,12.28
2017-09-15T05:05:56.493Z,12.27
2017-09-15T05:08:23.900Z,12.26
2017-09-15T05:10:51.286Z,12.27
2017-09-15T05:13:18.706Z,12.34
2017-09-15T05:15:46.094Z,12.31
2017-09-15T05:18:13.492Z,12.35
2017-09-15T05:20:40.887Z,12.39
2017-09-15T05:23:08.275Z,12.41
2017-09-15T05:25:35.682Z,12.45
2017-09-15T05:28:03.063Z,12.46
2017-09-15T05:30:30.963Z,12.46
2017-09-15T05:32:58.354Z,12.50
2017-09-15T05:35:25.751Z,12.57
2017-09-15T05:37:53.162Z,12.63
2017-09-15T05:40:20.555Z,12.63
2017-09-15T05:42:47.959Z,12.70
2017-09-15T05:45:15.346Z,12.68
2017-09-15T05:47:42.773Z,12.72
2017-09-15T05:50:10.147Z,12.71
2017-09-15T05:52:37.559Z,12.76
2017-09-15T05:55:04.962Z,12.79
2017-09-15T05:57:32.359Z,12.78
2017-09-15T05:59:59.763Z,12.83
2017-09-15T06:02:27.155Z,12.85
2017-09-15T06:04:54.562Z,12.86
2017-09-15T06:07:21.951Z,12.90
2017-09-15T06:09:49.347Z,12.97
2017-09-15T06:12:16.750Z,12.98
2017-09-15T06:14:44.143Z,13.05
2017-09-15T06:17:11.543Z,13.11
2017-09-15T06:19:38.938Z,13.16
2017-09-15T06:22:06.339Z,13.18
2017-09-15T06:24:33.726Z,13.24
2017-09-15T06:27:01.116Z,13.32
2017-09-15T06:29:28.515Z,13.41
2017-09-15T06:31:55.899Z,13.47
2017-09-15T06:34:23.632Z,13.56
2017-09-15T06:36:51.014Z,13.55
2017-09-15T06:39:18.406Z,13.55
2017-09-15T06:41:45.810Z,13.63
2017-09-15T06:44:13.196Z,13.61
2017-09-15T06:46:40.594Z,13.58
2017-09-15T06:49:07.988Z,13.60
2017-09-15T06:51:35.382Z,13.61
2017-09-15T06:54:02.780Z,13.59
2017-09-15T06:56:30.172Z,13.55
2017-09-15T06:58:57.559Z,13.63
2017-09-15T07:01:24.958Z,13.70
2017-09-15T07:03:52.499Z,13.78
2017-09-15T07:06:19.886Z,13.81
2017-09-15T07:08:47.284Z,13.84
2017-09-15T07:11:14.679Z,13.90
2017-09-15T07:13:42.072Z,13.96
2017-09-15T07:16:09.484Z,14.06
2017-09-15T07:18:36.884Z,14.16
2017-09-15T07:21:04.271Z,14.28
2017-09-15T07:23:31.671Z,14.35
2017-09-15T07:25:59.079Z,14.44
2017-09-15T07:28:26.486Z,14.49
2017-09-15T07:30:53.894Z,14.58
2017-09-15T07:33:21.283Z,14.60
2017-09-15T07:35:48.682Z,14.62
2017-09-15T07:38:16.083Z,14.69
2017-09-15T07:40:43.482Z,14.75
2017-09-15T07:43:10.878Z,14.83
2017-09-15T07:45:38.298Z,14.89
2017-09-15T07:48:05.682Z,14.92
2017-09-15T07:50:33.071Z,14.94
2017-09-15T07:53:00.460Z,14.90
2017-09-15T07:55:28.274Z,14.93
2017-09-15T07:57:55.883Z,14.96
2017-09-15T08:00:23.283Z,14.99
2017-09-15T08:02:50.683Z,15.01
2017-09-15T08:05:18.079Z,15.05
2017-09-15T08:07:45.475Z,15.09
2017-09-15T08:10:12.866Z,15.09
2017-09-15T08:12:40.254Z,15.04
2017-09-15T08:15:07.656Z,15.07
2017-09-15T08:17:35.048Z,15.01
2017-09-15T08:20:02.455Z,15.05
2017-09-15T08:22:29.838Z,15.00
2017-09-15T08:24:57.382Z,14.99
2017-09-15T08:27:24.775Z,15.01
2017-09-15T08:29:52.167Z,14.97
2017-09-15T08:32:19.564Z,14.93
2017-09-15T08:34:46.946Z,14.89
2017-09-15T08:37:14.344Z,14.84
2017-09-15T08:39:41.731Z,14.85
2017-09-15T08:42:23.672Z,14.93
2017-09-15T08:44:51.059Z,15.06
2017-09-15T08:47:18.450Z,15.17
2017-09-15T08:49:45.850Z,15.35
2017-09-15T08:52:13.238Z,15.50
2017-09-15T08:54:40.638Z,15.70
2017-09-15T08:57:08.035Z,15.89
2017-09-15T08:59:35.566Z,16.03
2017-09-15T09:02:02.964Z,16.19
2017-09-15T09:04:30.360Z,16.20
2017-09-15T09:06:57.750Z,16.17
2017-09-15T09:09:25.145Z,16.15
2017-09-15T09:11:52.541Z,16.14
2017-09-15T09:14:19.927Z,16.12
2017-09-15T09:16:47.355Z,16.12
2017-09-15T09:19:14.738Z,16.10
2017-09-15T09:21:42.127Z,16.14
2017-09-15T09:24:09.556Z,16.16
2017-09-15T09:26:36.935Z,16.17
2017-09-15T09:29:04.359Z,16.24
2017-09-15T09:31:31.749Z,16.49
2017-09-15T09:33:59.134Z,17.08
2017-09-15T09:36:26.523Z,17.71
2017-09-15T09:38:53.911Z,18.15
2017-09-15T09:41:21.303Z,18.50
2017-09-15T09:43:48.683Z,18.44
2017-09-15T09:46:16.084Z,18.44
2017-09-15T09:48:43.467Z,18.47
2017-09-15T09:51:10.851Z,18.25
2017-09-15T09:53:38.249Z,17.99
2017-09-15T09:56:05.626Z,17.51
2017-09-15T09:58:33.023Z,17.07
2017-09-15T10:01:00.403Z,16.58
2017-09-15T10:03:27.948Z,16.17
2017-09-15T10:05:55.331Z,15.93
2017-09-15T10:08:22.723Z,15.53
2017-09-15T10:10:50.123Z,15.50
2017-09-15T10:13:17.502Z,15.98
2017-09-15T10:15:44.894Z,16.62
2017-09-15T10:18:12.283Z,16.84
2017-09-15T10:20:39.774Z,17.05
2017-09-15T10:23:07.166Z,17.19
2017-09-15T10:25:34.555Z,16.89
2017-09-15T10:28:01.955Z,16.38
2017-09-15T10:30:29.339Z,15.81
2017-09-15T10:32:56.741Z,15.25
2017-09-15T10:35:24.123Z,14.82
2017-09-15T10:37:51.535Z,14.93
2017-09-15T10:40:18.922Z,14.87
2017-09-15T10:42:46.318Z,15.10
2017-09-15T10:45:13.734Z,15.30
2017-09-15T10:47:41.151Z,15.30
2017-09-15T10:50:08.532Z,15.27
2017-09-15T10:52:35.927Z,15.18
2017-09-15T10:55:03.475Z,15.13
2017-09-15T10:57:36.383Z,15.37
2017-09-15T11:00:09.899Z,15.81
2017-09-15T11:02:37.292Z,16.30
2017-09-15T11:05:04.693Z,16.98
2017-09-15T11:07:32.082Z,17.38
2017-09-15T11:09:59.473Z,17.95
2017-09-15T11:12:26.875Z,18.15
2017-09-15T11:14:54.262Z,17.81
2017-09-15T11:17:22.095Z,17.46
2017-09-15T11:19:49.478Z,16.63
2017-09-15T11:22:16.860Z,16.56
2017-09-15T11:24:44.246Z,16.56
2017-09-15T11:27:11.642Z,16.20
2017-09-15T11:29:39.034Z,16.01
2017-09-15T11:32:06.419Z,15.75
2017-09-15T11:34:33.958Z,15.89
2017-09-15T11:37:01.346Z,16.17
2017-09-15T11:39:28.727Z,16.33
2017-09-15T11:41:56.122Z,16.31
2017-09-15T11:44:23.498Z,16.54
2017-09-15T11:46:50.892Z,16.87
2017-09-15T11:49:18.271Z,17.29
2017-09-15T11:51:45.811Z,17.88
2017-09-15T11:54:13.199Z,18.46
2017-09-15T11:56:40.583Z,18.37
2017-09-15T11:59:07.976Z,18.21
2017-09-15T12:01:35.359Z,17.58
2017-09-15T12:04:02.747Z,17.27
2017-09-15T12:06:30.122Z,16.99
2017-09-15T12:08:57.548Z,16.59
2017-09-15T12:11:24.928Z,16.41
2017-09-15T12:13:52.359Z,16.12
2017-09-15T12:16:19.746Z,15.68
2017-09-15T12:18:47.141Z,15.55
2017-09-15T12:21:14.543Z,15.41
2017-09-15T12:23:41.925Z,15.32
2017-09-15T12:26:09.466Z,15.63
2017-09-15T12:28:36.839Z,15.70
2017-09-15T12:31:04.235Z,15.87
2017-09-15T12:33:31.622Z,15.95
2017-09-15T12:35:59.016Z,16.60
2017-09-15T12:38:26.399Z,16.92
2017-09-15T12:40:53.787Z,17.46
2017-09-15T12:43:21.666Z,17.43
2017-09-15T12:45:49.058Z,17.24
2017-09-15T12:48:16.448Z,16.59
2017-09-15T12:50:43.893Z,16.51
2017-09-15T12:53:11.266Z,16.81
2017-09-15T12:55:38.659Z,17.20
2017-09-15T12:58:06.047Z,17.46
2017-09-15T13:00:33.447Z,17.50
2017-09-15T13:03:00.840Z,17.36
2017-09-15T13:05:28.214Z,17.09
2017-09-15T13:07:55.632Z,16.54
2017-09-15T13:10:23.002Z,15.95
2017-09-15T13:12:50.387Z,15.87
2017-09-15T13:15:17.874Z,15.76
2017-09-15T13:17:45.256Z,15.72
2017-09-15T13:20:12.655Z,15.93
2017-09-15T13:22:40.054Z,15.93
2017-09-15T13:25:07.482Z,16.32
2017-09-15T13:27:34.889Z,16.76
2017-09-15T13:30:02.266Z,16.91
2017-09-15T13:32:29.658Z,17.06
2017-09-15T13:34:57.052Z,17.03
2017-09-15T13:37:24.538Z,16.93
2017-09-15T13:39:51.933Z,17.04
2017-09-15T13:42:19.316Z,17.22
2017-09-15T13:44:46.703Z,17.50
2017-09-15T13:47:14.088Z,17.29
2017-09-15T13:49:41.636Z,17.55
2017-09-15T13:52:09.029Z,17.72
2017-09-15T13:54:36.412Z,17.65
2017-09-15T13:57:03.824Z,17.29
2017-09-15T13:59:31.206Z,17.33
2017-09-15T14:01:58.600Z,17.12
2017-09-15T14:04:25.979Z,17.15
2017-09-15T14:06:54.068Z,17.20
2017-09-15T14:09:21.511Z,17.21
2017-09-15T14:11:48.928Z,17.33
2017-09-15T14:14:16.311Z,17.60
2017-09-15T14:16:43.699Z,17.75
2017-09-15T14:19:11.100Z,18.02
2017-09-15T14:21:38.478Z,17.84
2017-09-15T14:24:05.983Z,17.65
2017-09-15T14:26:33.367Z,17.60
2017-09-15T14:29:00.754Z,17.65
2017-09-15T14:31:28.138Z,17.42
2017-09-15T14:33:55.563Z,17.50
2017-09-15T14:36:23.059Z,17.44
2017-09-15T14:38:50.482Z,17.30
2017-09-15T14:41:17.855Z,17.60
2017-09-15T14:43:45.302Z,17.80
2017-09-15T14:46:12.691Z,17.58
2017-09-15T14:48:40.092Z,17.59
2017-09-15T14:51:07.502Z,17.36
2017-09-15T14:53:35.034Z,17.26
2017-09-15T14:56:02.413Z,17.00
2017-09-15T14:58:29.808Z,17.00
2017-09-15T15:00:57.251Z,17.07
2017-09-15T15:03:24.639Z,17.01
2017-09-15T15:05:52.895Z,16.92
2017-09-15T15:08:20.285Z,17.01
2017-09-15T15:10:47.667Z,17.10
2017-09-15T15:13:15.055Z,17.14
2017-09-15T15:15:42.438Z,17.38
2017-09-15T15:18:09.835Z,17.36
2017-09-15T15:20:37.236Z,17.31
2017-09-15T15:23:05.605Z,16.95
2017-09-15T15:25:32.978Z,16.63
2017-09-15T15:28:00.375Z,16.62
2017-09-15T15:30:27.766Z,16.29
2017-09-15T15:32:55.152Z,16.22
2017-09-15T15:35:22.551Z,16.17
2017-09-15T15:37:49.934Z,16.02
2017-09-15T15:40:17.356Z,16.04
2017-09-15T15:42:44.746Z,16.09
2017-09-15T15:45:12.126Z,16.11
2017-09-15T15:47:39.529Z,16.14
2017-09-15T15:50:06.906Z,16.17
2017-09-15T15:52:34.315Z,16.14
2017-09-15T15:55:01.720Z,16.09
2017-09-15T15:57:29.263Z,15.92
2017-09-15T15:59:56.651Z,15.78
2017-09-15T16:02:24.051Z,15.44
2017-09-15T16:04:51.455Z,15.49
2017-09-15T16:07:18.841Z,15.42
2017-09-15T16:09:46.246Z,15.53
2017-09-15T16:12:13.631Z,15.63
2017-09-15T16:14:41.351Z,15.51
2017-09-15T16:17:08.739Z,15.59
2017-09-15T16:19:36.130Z,15.63
2017-09-15T16:22:04.525Z,15.52
2017-09-15T16:24:31.898Z,15.28
2017-09-15T16:26:59.315Z,15.22
2017-09-15T16:29:26.706Z,15.11
2017-09-15T16:31:54.123Z,14.98
2017-09-15T16:34:22.427Z,14.97
2017-09-15T16:36:51.719Z,15.02
2017-09-15T16:39:24.750Z,14.98
2017-09-15T16:41:57.686Z,15.01
2017-09-15T16:44:30.710Z,15.11
2017-09-15T16:47:03.595Z,15.15
2017-09-15T16:49:30.432Z,15.13
2017-09-15T16:51:57.811Z,15.17
2017-09-15T16:54:25.194Z,15.20
2017-09-15T16:56:57.659Z,15.26
2017-09-15T16:59:25.186Z,15.22
2017-09-15T17:01:52.571Z,15.24
2017-09-15T17:04:19.960Z,15.29
2017-09-15T17:06:47.346Z,15.31
2017-09-15T17:09:14.737Z,15.29
2017-09-15T17:11:42.126Z,15.25
2017-09-15T17:14:09.511Z,15.28
2017-09-15T17:16:36.926Z,15.24
2017-09-15T17:19:04.311Z,15.18
2017-09-15T17:21:31.754Z,15.06
2017-09-15T17:23:59.151Z,15.03
2017-09-15T17:26:26.531Z,14.95
2017-09-15T17:28:54.633Z,14.80
2017-09-15T17:31:22.896Z,14.71
2017-09-15T17:33:50.889Z,14.62
2017-09-15T17:36:18.874Z,14.52
2017-09-15T17:38:46.941Z,14.40
2017-09-15T17:41:14.366Z,14.30
2017-09-15T17:43:41.751Z,14.20
2017-09-15T17:46:09.140Z,14.12
2017-09-15T17:48:36.531Z,14.11
2017-09-15T17:51:04.067Z,14.09
2017-09-15T17:53:31.479Z,14.02
2017-09-15T17:55:58.868Z,13.95
2017-09-15T17:58:26.256Z,13.87
2017-09-15T18:00:53.648Z,13.81
2017-09-15T18:03:21.035Z,13.76
2017-09-15T18:05:48.424Z,13.70
2017-09-15T18:08:15.830Z,13.67
2017-09-15T18:10:43.223Z,13.67
2017-09-15T18:13:10.614Z,13.67
2017-09-15T18:15:38.007Z,13.67
2017-09-15T18:18:05.399Z,13.72
2017-09-15T18:20:32.796Z,13.74
2017-09-15T18:23:00.186Z,13.76
2017-09-15T18:25:27.596Z,13.79
2017-09-15T18:27:55.027Z,13.82
2017-09-15T18:30:22.412Z,13.85
2017-09-15T18:32:49.807Z,13.85
2017-09-15T18:35:17.204Z,13.85
2017-09-15T18:37:44.600Z,13.85
2017-09-15T18:40:11.991Z,13.85
2017-09-15T18:42:39.531Z,13.85
2017-09-15T18:45:06.923Z,13.82
2017-09-15T18:47:34.330Z,13.82
2017-09-15T18:50:01.732Z,13.82
2017-09-15T18:52:29.126Z,13.82
2017-09-15T18:54:56.523Z,13.82
2017-09-15T18:57:23.918Z,13.80
2017-09-15T18:59:51.619Z,13.79
2017-09-15T19:02:19.010Z,13.77
2017-09-15T19:04:46.404Z,13.73
2017-09-15T19:07:13.808Z,13.63
2017-09-15T19:09:41.203Z,13.50
2017-09-15T19:12:08.604Z,13.41
2017-09-15T19:14:35.986Z,13.27
2017-09-15T19:17:03.544Z,13.18
2017-09-15T19:19:30.930Z,13.08
2017-09-15T19:21:58.326Z,12.96
2017-09-15T19:24:25.722Z,12.84
2017-09-15T19:26:53.118Z,12.73
2017-09-15T19:29:20.522Z,12.63
2017-09-15T19:31:47.922Z,12.55
2017-09-15T19:34:15.827Z,12.47
2017-09-15T19:36:43.218Z,12.42
2017-09-15T19:39:10.606Z,12.31
2017-09-15T19:41:38.014Z,12.26
2017-09-15T19:44:05.406Z,12.19
2017-09-15T19:46:32.807Z,12.14
2017-09-15T19:49:00.201Z,12.08
2017-09-15T19:51:27.743Z,12.05
2017-09-15T19:53:55.131Z,12.02
2017-09-15T19:56:22.510Z,12.03
2017-09-15T19:58:49.911Z,12.05
2017-09-15T20:01:17.308Z,12.05
2017-09-15T20:03:44.707Z,12.05
2017-09-15T20:06:12.099Z,12.02
2017-09-15T20:08:39.644Z,11.99
2017-09-15T20:11:07.035Z,11.98
2017-09-15T20:13:34.444Z,11.92
2017-09-15T20:16:01.833Z,11.88
2017-09-15T20:18:29.215Z,11.81
2017-09-15T20:20:56.610Z,11.77
2017-09-15T20:23:24.011Z,11.75
2017-09-15T20:25:51.551Z,11.76
2017-09-15T20:28:18.947Z,11.73
2017-09-15T20:30:46.350Z,11.71
2017-09-15T20:33:13.742Z,11.71
2017-09-15T20:35:41.139Z,11.71
2017-09-15T20:38:08.544Z,11.65
2017-09-15T20:40:35.952Z,11.71
2017-09-15T20:43:03.455Z,11.61
2017-09-15T20:45:30.876Z,11.56
2017-09-15T20:47:58.255Z,11.60
2017-09-15T20:50:25.655Z,11.60
2017-09-15T20:52:53.051Z,11.50
2017-09-15T20:55:20.478Z,11.50
2017-09-15T20:57:47.874Z,11.56
2017-09-15T21:00:15.273Z,11.60
2017-09-15T21:02:42.673Z,11.59
2017-09-15T21:05:10.063Z,11.59
2017-09-15T21:07:37.484Z,11.61
2017-09-15T21:10:04.880Z,11.63
2017-09-15T21:12:32.693Z,11.68
2017-09-15T21:15:00.079Z,11.72
2017-09-15T21:17:27.479Z,11.67
2017-09-15T21:19:54.879Z,11.71
2017-09-15T21:22:22.271Z,11.71
2017-09-15T21:24:49.667Z,11.76
2017-09-15T21:27:17.063Z,11.76
2017-09-15T21:29:44.478Z,11.77
2017-09-15T21:32:11.875Z,11.78
2017-09-15T21:34:39.266Z,11.79
2017-09-15T21:37:06.663Z,11.82
2017-09-15T21:39:34.073Z,11.81
2017-09-15T21:42:01.471Z,11.87
2017-09-15T21:44:28.864Z,11.95
2017-09-15T21:46:56.575Z,12.01
2017-09-15T21:49:23.978Z,12.06
2017-09-15T21:51:51.372Z,12.10
2017-09-15T21:54:18.787Z,12.14
2017-09-15T21:56:46.184Z,12.15
2017-09-15T21:59:13.583Z,12.18
2017-09-15T22:01:40.983Z,12.19
2017-09-15T22:04:13.907Z,12.18
2017-09-15T22:06:41.301Z,12.18
2017-09-15T22:09:08.727Z,12.13
2017-09-15T22:11:36.123Z,12.08
2017-09-15T22:14:03.518Z,11.99
2017-09-15T22:16:30.922Z,11.88
2017-09-15T22:18:58.320Z,11.80
2017-09-15T22:21:25.716Z,11.70
2017-09-15T22:23:53.106Z,11.63
2017-09-15T22:26:20.611Z,11.55
2017-09-15T22:28:48.003Z,11.52
2017-09-15T22:31:15.390Z,11.45
2017-09-15T22:33:42.794Z,11.42
2017-09-15T22:36:10.187Z,11.38
2017-09-15T22:38:37.620Z,11.36
2017-09-15T22:41:04.983Z,11.32
2017-09-15T22:43:32.398Z,11.29
2017-09-15T22:45:59.801Z,11.24
2017-09-15T22:48:27.191Z,11.20
2017-09-15T22:50:54.590Z,11.18
2017-09-15T22:53:22.000Z,11.13
2017-09-15T22:55:49.392Z,11.09
2017-09-15T22:58:16.780Z,11.08
2017-09-15T23:00:44.198Z,11.02
2017-09-15T23:03:11.599Z,11.05
2017-09-15T23:05:38.987Z,11.01
2017-09-15T23:08:06.391Z,10.97
2017-09-15T23:10:33.791Z,10.94
2017-09-15T23:13:01.195Z,10.90
2017-09-15T23:15:28.590Z,10.87
2017-09-15T23:17:56.000Z,10.86
2017-09-15T23:20:23.397Z,10.86
2017-09-15T23:22:50.786Z,10.81
2017-09-15T23:25:18.187Z,10.79
2017-09-15T23:27:45.583Z,10.74
2017-09-15T23:30:12.991Z,10.73
2017-09-15T23:32:40.386Z,10.67
2017-09-15T23:35:07.784Z,10.67
2017-09-15T23:37:35.183Z,10.66
2017-09-15T23:40:02.569Z,10.65
2017-09-15T23:42:29.967Z,10.66
2017-09-15T23:45:14.609Z,10.63
2017-09-15T23:47:42.011Z,10.59
2017-09-15T23:50:09.417Z,10.58
2017-09-15T23:52:36.807Z,10.55
2017-09-15T23:55:04.209Z,10.53
2017-09-15T23:57:31.602Z,10.52
2017-09-15T23:59:59.002Z,10.51
